Terminal Aerodrome Forecast
Issued by NWS Memphis, TN

Home | Current Version | Previous Version | Text Only | Print | Product List | Glossary On
Versions: 1 2 3 4 5 6 7 8 9 10 11 12 13 14
098
FTUS44 KMEG 141733
TAFMKL
TAF
KMKL 141733Z 1418/1518 12007KT P6SM -FZRAPL OVC040
     FM141830 17008KT P6SM VCSH SCT025 OVC035
      TEMPO 1422/1502 6SM -SHRA BKN025
     FM150200 17004KT 4SM -RA BR SCT005 OVC012
     FM150700 VRB03KT 2SM -RA BR SCT003 OVC005=

USA.gov is the U.S. government's official web portal to all federal, state and local government web resources and services.